Details From LIMG - ALBENGA
To LFKC - St Catherine
Flight Number -
Tags generated
Created
Modified
Stats Distance 96 nm / 178 km
Max Altitude 8,600 ft / 2,621 m
Waypoints 3
Social Downloads 0
Likes 0
Share VATSIM

Download

Looking for another format? Having issues loading an existing format? Contact us
Advertisement - Login to hide

Notes

Basic altitude profile: - Ascent Rate: 700ft/min - Ascent Speed: 80kts - Cruise Altitude: 4500ft - Cruise Speed: 100kts - Descent Rate: 700ft/min - Descent Speed: 120kts Options: - Use NATs: yes - Use PACOTS: yes - Use low airways: yes - Use high airways: yes

Route

LIMG NIRDO LFKC

ID Type Via Altitude Latitude Longitude Leg Dist Tot Dist Heading (true) Name
O LIMG APT - 0 ft / 0 m 44.05058˚ 8.12740˚ - 0 nm - ALBENGA
NIRDO FIX - 8,600 ft / 2,621 m 43.14556˚ 8.43472˚ 55 nm 55 nm 166° / 166° -
O LFKC APT - 0 ft / 0 m 42.53076˚ 8.79292˚ 40 nm 96 nm 157° / 157° St Catherine

Altitude Profile

Advertisement - Login to hide

LIMG

Details ICAO LIMG (ALL)
Name ALBENGA
Region Italy
Timezone Europe/Rome (UTC+2.0)
Stats Elevation 148 ft / 45 m (AMSL)
Location 44.050576° 8.127396°
Runways 1
Magnetic Variation 2.273° E

METAR

LIMG 220750Z VRB03KT 9000 -RA BKN040 15/15 Q1013

Decode

TAF

Not found

Departure Runways

ID Width Length Bearing (true) Bearing (mag) Surface Threshold Offset Overrun Length
09 148 ft / 45 m 4,681 ft / 1,427 m 92.94° 90.67° Asphalt 295 ft / 90 m 0 ft / 0 m
27 148 ft / 45 m 4,681 ft / 1,427 m 272.95° 270.68° Asphalt 0 ft / 0 m 425 ft / 130 m

LFKC

Details ICAO LFKC (CLY)
Name St Catherine
Region France
Timezone Europe/Paris (UTC+2.0)
Stats Elevation 208 ft / 63 m (AMSL)
Location 42.530762° 8.792925°
Runways 1
Magnetic Variation 2.389° E

METAR

LFKC 220800Z AUTO VRB02KT 9999 FEW038/// SCT048/// BKN054/// ///TCU 18/16 Q1012 TEMPO 3000 SHRA BR BKN008 SCT025TCU

Decode

TAF

TAF AMD LFKC 220654Z 2206/2303 21003KT 9999 FEW008 SCT040 BKN050 TEMPO 2206/2215 VRB10KT 3000 SHRA BR BKN008 SCT025TCU TEMPO 2221/2303 BKN010 TX20/2212Z TN13/2303Z

Decode

Destination Runways

ID Width Length Bearing (true) Bearing (mag) Surface Threshold Offset Overrun Length
18 131 ft / 40 m 7,596 ft / 2,315 m 179.60° 177.21° Concrete 0 ft / 0 m 0 ft / 0 m
36 131 ft / 40 m 7,596 ft / 2,315 m 359.60° 357.21° Concrete 656 ft / 200 m 0 ft / 0 m

Approach Navaids

Runway Type Ident Frequency Range Bearing (true) Bearing (mag) Slope Elevation
18 Localiser CLI 109.50 MHz 18 nm / 33 km 179.62° 177.23° - 230 ft / 70 m (AMSL)
18 DME CLI 109.50 MHz 18 nm / 33 km - - - 230 ft / 70 m (AMSL)

Popular Alternatives